Tropical Cyclones
[Index]
Main Index Home Page Stock Weather Photos Extreme Storms Discussion Storm News and Storm Chasing Reports Tropical Cyclones / Hurricanes / Typhoons Weather Data and Links Wild Fires / Bushfires Weather Observation Techniques Weather Picture Catalogue Tornado Pictures and Reports Stock Video Footage and DVDs for sale
Season 1982-1983 Tropical Cyclone DES Track Map
Season 1982-1983 Summaries: [BoM-AU] [JTWC-AU] [JTWC-SIO] [JTWC-SPAC] [JTWC-SH]
<<- Previous TC | BoM 1982-1983 Season | Next TC ->>

click for intensity scale information  Lat/long Grid: Show Hide

 Date Labels: Show Hide

Bureau of Meteorology Tropical Cyclone Data

Name: DES
Number: 637 / 198283_02

14 Jan 1983 12:00 UTC to 23 Jan 1983 00:00 UTC

    date/time    lat    long    hPa   cat  kts
1983-01-14 12   16.3   146.9   1004                     
1983-01-14 15   16.3   146.9   1003                     
1983-01-14 18   16.4   147.0   1003                     
1983-01-14 21   16.5   147.2   1002                     
1983-01-15 00   16.6   147.3   1002                     
1983-01-15 03   16.5   147.8   1002                     
1983-01-15 06   16.4   148.4   1000                     
1983-01-15 09   16.5   148.9   1000                     
1983-01-15 12   16.7   149.5   1001                     
1983-01-15 18   17.3   150.4    999                     
1983-01-16 00   17.8   151.6   1000                     
1983-01-16 06   18.5   152.7    996                     
1983-01-16 12   18.8   153.3    996                     
1983-01-16 18   19.1   154.0    996                     
1983-01-17 00   19.2   154.7    996                     
1983-01-17 06   19.2   155.3    996                     
1983-01-17 12   19.7   156.0    994    1                
1983-01-17 18   21.0   156.2    994    1                
1983-01-18 00   22.1   156.7    995    1                
1983-01-18 06   22.6   157.3    995    1                
1983-01-18 12   22.3   158.0    995    1                
1983-01-18 18   21.5   158.1    997                     
1983-01-19 00   20.7   157.9    998                     
1983-01-19 06   20.2   158.0    998                     
1983-01-19 12   19.7   157.7    998                     
1983-01-19 18   18.9   157.1    998                     
1983-01-20 00   17.8   156.8    999                     
1983-01-20 06   17.0   156.0   1000                     
1983-01-20 12   16.4   155.8   1001                     
1983-01-20 18   16.1   155.7   1001                     
1983-01-21 00   15.3   155.5   1001                     
1983-01-21 06   14.7   154.8   1000                     
1983-01-21 12   14.3   154.7   1000                     
1983-01-21 18   13.9   154.6   1000                     
1983-01-22 00   13.6   154.3   1002                     
1983-01-22 06   13.3   154.2   1003                     
1983-01-22 12   13.0   154.8   1005                     
1983-01-22 18   13.1   155.9   1005                     
1983-01-23 00   13.5   157.0   1005                     
Winds are 10-min average.

Tropical cyclone tracks developed by Michael Bath using data from the Bureau of Meteorology and Google Maps.


[Australian Severe Weather index] [Copyright Notice] [Email Contacts] [Search This Site] [Privacy Policy]
Document: tropical_cyclone_des.htm Updated: 30 May 2013